全部
Camfield Stn Airport CFI 天氣
There is no TAF data available at CFI or any nearby airports.
There is no METAR data available at CFI. Showing METAR data for YVRD (22 mi W).
YVRD近期METAR歷史資料(CFI無資料)
| Date | Time (ACST) | Flight Rules | Wind Dir. | Speed | Type | Height AGL (ft) | Visibility | Temp (°C) | Temp (°F) | Dew Point (°C) | Dew Point (°F) | Rel. Humid. | Pressure | Density Altitude | Remarks |
|---|---|---|---|---|---|---|---|---|---|---|---|---|---|---|---|
| 05-五月 | 09:30 | n/a | 150° | 5 kt | Missing | 24° | 75° | 19° | 66° | 74% | 1016 mb | 1,287 ft | |||
| 05-五月 | 08:30 | n/a | 150° | 7 kt | Missing | 22° | 71° | 17° | 62° | 73% | 1015 mb | 1,076 ft | |||
| 05-五月 | 07:30 | n/a | 160° | 2 kt | Missing | 21° | 69° | 18° | 64° | 83% | 1015 mb | 956 ft | |||
| 05-五月 | 06:30 | n/a | 160° | 3 kt | Missing | 21° | 69° | 19° | 66° | 88% | 1014 mb | 986 ft | |||
| 05-五月 | 05:30 | n/a | 170° | 1 kt | Missing | 22° | 71° | 19° | 66° | 83% | 1013 mb | 1,135 ft | |||
| 05-五月 | 04:30 | n/a | 140° | 3 kt | Missing | 23° | 73° | 18° | 64° | 73% | 1013 mb | 1,255 ft | |||
| 05-五月 | 03:30 | n/a | 180° | 3 kt | Missing | 23° | 73° | 19° | 66° | 78% | 1013 mb | 1,255 ft | |||
| 05-五月 | 02:30 | n/a | 130° | 1 kt | Missing | 24° | 75° | 19° | 66° | 74% | 1013 mb | 1,375 ft | |||
| 05-五月 | 01:30 | n/a | 190° | 2 kt | Missing | 24° | 75° | 19° | 66° | 74% | 1014 mb | 1,346 ft | |||
| 05-五月 | 00:30 | n/a | 180° | 1 kt | Missing | 25° | 77° | 19° | 66° | 69% | 1014 mb | 1,466 ft | |||
| 04-五月 | 23:30 | n/a | 130° | 3 kt | Missing | 26° | 78° | 19° | 66° | 65% | 1014 mb | 1,586 ft | |||
| 04-五月 | 22:30 | n/a | 110° | 4 kt | Missing | 27° | 80° | 19° | 66° | 62% | 1014 mb | 1,706 ft | |||
| 04-五月 | 21:30 | n/a | 100° | 4 kt | Missing | 26° | 78° | 19° | 66° | 65% | 1014 mb | 1,586 ft | |||
| 04-五月 | 20:30 | n/a | 140° | 4 kt | Missing | 27° | 80° | 19° | 66° | 62% | 1013 mb | 1,735 ft | |||
| 04-五月 | 19:30 | n/a | 160° | 5 kt | Missing | 27° | 80° | 19° | 66° | 62% | 1012 mb | 1,765 ft | |||
| 04-五月 | 18:30 | n/a | Calm | Missing | 30° | 86° | 18° | 64° | 49% | 1011 mb | 2,154 ft | ||||
| 04-五月 | 17:30 | n/a | 110° | 3 kt | Missing | 32° | 89° | 18° | 64° | 43% | 1010 mb | 2,424 ft | |||
| 04-五月 | 16:30 | n/a | 160° | 1 kt | Missing | 35° | 95° | 18° | 64° | 37% | 1010 mb | 2,784 ft | |||
| 04-五月 | 15:30 | n/a | 100° | 3 kt | Missing | 35° | 95° | 18° | 64° | 37% | 1010 mb | 2,784 ft | |||
| 04-五月 | 14:30 | n/a | 160° | 2 kt | Missing | 34° | 93° | 20° | 68° | 44% | 1011 mb | 2,634 ft | |||
| 04-五月 | 13:30 | n/a | 50° | 4 kt | Missing | 34° | 93° | 20° | 68° | 44% | 1011 mb | 2,634 ft | |||
| 04-五月 | 12:30 | n/a | 80° | 3 kt | Missing | 33° | 91° | 20° | 68° | 46% | 1012 mb | 2,485 ft | |||
| 04-五月 | 11:30 | n/a | 70° | 2 kt | Missing | 33° | 91° | 21° | 69° | 49% | 1013 mb | 2,455 ft | |||
| 04-五月 | 10:30 | n/a | 70° | 4 kt | Missing | 31° | 87° | 21° | 69° | 55% | 1014 mb | 2,186 ft |
登入
| 您的瀏覽器不支援. 升級您的瀏覽器 |
